sensor_id;sensor_type;location;lat;lon;timestamp;pressure;altitude;pressure_sealevel;temperature;humidity
21817;BME280;13247;47.504;7.382;2023-02-02T00:00:53;98419.34;;;5.59;100.00
21817;BME280;13247;47.504;7.382;2023-02-02T00:03:38;98422.81;;;5.58;100.00
21817;BME280;13247;47.504;7.382;2023-02-02T00:06:24;98419.34;;;5.59;100.00
21817;BME280;13247;47.504;7.382;2023-02-02T00:09:11;98424.56;;;5.59;100.00
21817;BME280;13247;47.504;7.382;2023-02-02T00:11:58;98422.78;;;5.49;100.00
21817;BME280;13247;47.504;7.382;2023-02-02T00:14:43;98420.13;;;5.47;100.00
21817;BME280;13247;47.504;7.382;2023-02-02T00:17:28;98416.72;;;5.53;100.00
21817;BME280;13247;47.504;7.382;2023-02-02T00:20:12;98404.56;;;5.53;100.00
21817;BME280;13247;47.504;7.382;2023-02-02T00:22:57;98393.25;;;5.47;100.00
21817;BME280;13247;47.504;7.382;2023-02-02T00:25:42;98387.16;;;5.45;100.00
21817;BME280;13247;47.504;7.382;2023-02-02T00:28:26;98393.25;;;5.42;100.00
21817;BME280;13247;47.504;7.382;2023-02-02T00:31:11;98380.22;;;5.39;100.00
21817;BME280;13247;47.504;7.382;2023-02-02T00:33:56;98375.03;;;5.42;100.00
21817;BME280;13247;47.504;7.382;2023-02-02T00:36:41;98390.66;;;5.47;100.00
21817;BME280;13247;47.504;7.382;2023-02-02T00:39:27;98403.63;;;5.39;100.00
21817;BME280;13247;47.504;7.382;2023-02-02T00:42:11;98396.69;;;5.41;100.00
21817;BME280;13247;47.504;7.382;2023-02-02T00:44:56;98388.94;;;5.44;100.00
21817;BME280;13247;47.504;7.382;2023-02-02T00:48:04;98382.84;;;5.44;100.00
21817;BME280;13247;47.504;7.382;2023-02-02T00:50:49;98378.53;;;5.47;100.00
21817;BME280;13247;47.504;7.382;2023-02-02T00:53:33;98390.69;;;5.48;100.00
21817;BME280;13247;47.504;7.382;2023-02-02T00:56:18;98395.03;;;5.51;100.00
21817;BME280;13247;47.504;7.382;2023-02-02T00:59:03;98401.97;;;5.49;100.00
21817;BME280;13247;47.504;7.382;2023-02-02T01:01:47;98401.97;;;5.49;100.00
21817;BME280;13247;47.504;7.382;2023-02-02T01:04:32;98404.53;;;5.46;100.00
21817;BME280;13247;47.504;7.382;2023-02-02T01:07:16;98409.72;;;5.46;100.00
21817;BME280;13247;47.504;7.382;2023-02-02T01:10:01;98416.66;;;5.45;100.00
21817;BME280;13247;47.504;7.382;2023-02-02T01:12:46;98426.25;;;5.54;100.00
21817;BME280;13247;47.504;7.382;2023-02-02T01:15:31;98425.44;;;5.60;100.00
21817;BME280;13247;47.504;7.382;2023-02-02T01:18:15;98438.44;;;5.61;100.00
21817;BME280;13247;47.504;7.382;2023-02-02T01:21:05;98432.38;;;5.59;100.00
21817;BME280;13247;47.504;7.382;2023-02-02T01:23:50;98440.13;;;5.57;100.00
21817;BME280;13247;47.504;7.382;2023-02-02T01:26:35;98450.59;;;5.64;100.00
21817;BME280;13247;47.504;7.382;2023-02-02T01:29:19;98458.34;;;5.57;100.00
21817;BME280;13247;47.504;7.382;2023-02-02T01:32:04;98467.88;;;5.55;100.00
21817;BME280;13247;47.504;7.382;2023-02-02T01:34:49;98460.13;;;5.62;100.00
21817;BME280;13247;47.504;7.382;2023-02-02T01:37:33;98456.66;;;5.60;100.00
21817;BME280;13247;47.504;7.382;2023-02-02T01:40:18;98461.00;;;5.67;100.00
21817;BME280;13247;47.504;7.382;2023-02-02T01:43:03;98460.16;;;5.69;100.00
21817;BME280;13247;47.504;7.382;2023-02-02T01:45:55;98461.03;;;5.70;100.00
21817;BME280;13247;47.504;7.382;2023-02-02T01:48:46;98467.97;;;5.71;100.00
21817;BME280;13247;47.504;7.382;2023-02-02T01:54:35;98470.56;;;5.68;100.00
21817;BME280;13247;47.504;7.382;2023-02-02T01:57:37;98477.53;;;5.72;100.00
21817;BME280;13247;47.504;7.382;2023-02-02T02:00:25;98490.47;;;5.61;100.00
21817;BME280;13247;47.504;7.382;2023-02-02T02:03:15;98478.34;;;5.63;100.00
21817;BME280;13247;47.504;7.382;2023-02-02T02:06:07;98474.88;;;5.61;100.00
21817;BME280;13247;47.504;7.382;2023-02-02T02:08:59;98463.59;;;5.62;100.00
21817;BME280;13247;47.504;7.382;2023-02-02T02:11:46;98464.47;;;5.61;100.00
21817;BME280;13247;47.504;7.382;2023-02-02T02:14:31;98461.88;;;5.60;100.00
21817;BME280;13247;47.504;7.382;2023-02-02T02:30:38;98464.50;;;5.66;100.00
21817;BME280;13247;47.504;7.382;2023-02-02T02:36:32;98461.88;;;5.60;100.00
21817;BME280;13247;47.504;7.382;2023-02-02T02:39:31;98459.19;;;5.52;100.00
21817;BME280;13247;47.504;7.382;2023-02-02T02:42:23;98456.59;;;5.50;100.00
21817;BME280;13247;47.504;7.382;2023-02-02T02:45:10;98449.72;;;5.62;100.00
21817;BME280;13247;47.504;7.382;2023-02-02T02:47:56;98445.34;;;5.53;100.00
21817;BME280;13247;47.504;7.382;2023-02-02T02:50:42;98444.50;;;5.58;100.00
21817;BME280;13247;47.504;7.382;2023-02-02T02:53:26;98428.84;;;5.54;100.00
21817;BME280;13247;47.504;7.382;2023-02-02T02:56:22;98423.66;;;5.51;100.00
21817;BME280;13247;47.504;7.382;2023-02-02T03:02:56;98423.53;;;5.34;100.00
21817;BME280;13247;47.504;7.382;2023-02-02T03:08:57;98424.41;;;5.33;100.00
21817;BME280;13247;47.504;7.382;2023-02-02T03:11:44;98413.13;;;5.34;100.00
21817;BME280;13247;47.504;7.382;2023-02-02T03:14:34;98418.34;;;5.36;100.00
21817;BME280;13247;47.504;7.382;2023-02-02T03:17:19;98420.00;;;5.26;100.00
21817;BME280;13247;47.504;7.382;2023-02-02T03:20:04;98420.03;;;5.29;100.00
21817;BME280;13247;47.504;7.382;2023-02-02T03:22:49;98433.09;;;5.38;100.00
21817;BME280;13247;47.504;7.382;2023-02-02T03:25:33;98426.16;;;5.39;100.00
21817;BME280;13247;47.504;7.382;2023-02-02T03:28:18;98429.63;;;5.38;100.00
21817;BME280;13247;47.504;7.382;2023-02-02T03:31:04;98422.72;;;5.38;100.00
21817;BME280;13247;47.504;7.382;2023-02-02T03:33:50;98436.59;;;5.42;100.00
21817;BME280;13247;47.504;7.382;2023-02-02T03:36:34;98437.44;;;5.39;100.00
21817;BME280;13247;47.504;7.382;2023-02-02T03:39:19;98434.00;;;5.40;100.00
21817;BME280;13247;47.504;7.382;2023-02-02T03:42:03;98442.66;;;5.45;100.00
21817;BME280;13247;47.504;7.382;2023-02-02T03:44:48;98438.28;;;5.34;100.00
21817;BME280;13247;47.504;7.382;2023-02-02T03:47:32;98440.00;;;5.35;100.00
21817;BME280;13247;47.504;7.382;2023-02-02T03:50:17;98444.31;;;5.34;100.00
21817;BME280;13247;47.504;7.382;2023-02-02T03:53:02;98443.44;;;5.29;100.00
21817;BME280;13247;47.504;7.382;2023-02-02T03:55:47;98446.91;;;5.33;100.00
21817;BME280;13247;47.504;7.382;2023-02-02T03:58:31;98455.59;;;5.36;100.00
21817;BME280;13247;47.504;7.382;2023-02-02T04:01:16;98460.88;;;5.42;100.00
21817;BME280;13247;47.504;7.382;2023-02-02T04:04:00;98455.69;;;5.45;100.00
21817;BME280;13247;47.504;7.382;2023-02-02T04:06:45;98466.09;;;5.45;100.00
21817;BME280;13247;47.504;7.382;2023-02-02T04:09:29;98464.34;;;5.47;100.00
21817;BME280;13247;47.504;7.382;2023-02-02T04:12:14;98460.91;;;5.48;100.00
21817;BME280;13247;47.504;7.382;2023-02-02T04:14:58;98458.28;;;5.42;100.00
21817;BME280;13247;47.504;7.382;2023-02-02T04:17:43;98455.59;;;5.36;100.00
21817;BME280;13247;47.504;7.382;2023-02-02T04:20:27;98459.97;;;5.36;100.00
21817;BME280;13247;47.504;7.382;2023-02-02T04:23:12;98459.09;;;5.37;100.00
21817;BME280;13247;47.504;7.382;2023-02-02T04:25:57;98475.56;;;5.36;100.00
21817;BME280;13247;47.504;7.382;2023-02-02T04:28:42;98468.59;;;5.33;100.00
21817;BME280;13247;47.504;7.382;2023-02-02T04:31:27;98468.59;;;5.33;100.00
21817;BME280;13247;47.504;7.382;2023-02-02T04:34:13;98466.88;;;5.37;100.00
21817;BME280;13247;47.504;7.382;2023-02-02T04:36:59;98460.81;;;5.35;100.00
21817;BME280;13247;47.504;7.382;2023-02-02T04:39:43;98450.31;;;5.24;100.00
21817;BME280;13247;47.504;7.382;2023-02-02T04:42:28;98455.53;;;5.23;100.00
21817;BME280;13247;47.504;7.382;2023-02-02T04:45:15;98444.28;;;5.25;100.00
21817;BME280;13247;47.504;7.382;2023-02-02T04:48:00;98443.44;;;5.28;100.00
21817;BME280;13247;47.504;7.382;2023-02-02T04:50:45;98446.84;;;5.22;100.00
21817;BME280;13247;47.504;7.382;2023-02-02T04:53:30;98442.53;;;5.24;100.00
21817;BME280;13247;47.504;7.382;2023-02-02T04:56:17;98459.97;;;5.37;100.00
21817;BME280;13247;47.504;7.382;2023-02-02T04:59:01;98454.88;;;5.52;100.00
21817;BME280;13247;47.504;7.382;2023-02-02T05:01:46;98460.94;;;5.57;100.00
21817;BME280;13247;47.504;7.382;2023-02-02T05:04:31;98461.88;;;5.61;100.00
21817;BME280;13247;47.504;7.382;2023-02-02T05:07:16;98463.56;;;5.57;100.00
21817;BME280;13247;47.504;7.382;2023-02-02T05:10:01;98471.34;;;5.56;100.00
21817;BME280;13247;47.504;7.382;2023-02-02T05:12:46;98477.47;;;5.60;100.00
21817;BME280;13247;47.504;7.382;2023-02-02T05:15:30;98482.72;;;5.66;100.00
21817;BME280;13247;47.504;7.382;2023-02-02T05:18:15;98475.78;;;5.68;100.00
21817;BME280;13247;47.504;7.382;2023-02-02T05:21:01;98485.34;;;5.72;100.00
21817;BME280;13247;47.504;7.382;2023-02-02T05:23:47;98476.63;;;5.68;100.00
21817;BME280;13247;47.504;7.382;2023-02-02T05:26:31;98481.84;;;5.67;100.00
21817;BME280;13247;47.504;7.382;2023-02-02T05:29:16;98485.31;;;5.69;100.00
21817;BME280;13247;47.504;7.382;2023-02-02T05:32:00;98487.03;;;5.68;100.00
21817;BME280;13247;47.504;7.382;2023-02-02T05:34:45;98475.81;;;5.75;100.00
21817;BME280;13247;47.504;7.382;2023-02-02T05:37:30;98485.34;;;5.70;100.00
21817;BME280;13247;47.504;7.382;2023-02-02T05:40:14;98493.25;;;5.84;100.00
21817;BME280;13247;47.504;7.382;2023-02-02T05:42:59;98492.41;;;5.85;100.00
21817;BME280;13247;47.504;7.382;2023-02-02T05:45:44;98485.44;;;5.84;100.00
21817;BME280;13247;47.504;7.382;2023-02-02T05:48:29;98485.38;;;5.78;100.00
21817;BME280;13247;47.504;7.382;2023-02-02T05:51:23;98477.53;;;5.73;100.00
21817;BME280;13247;47.504;7.382;2023-02-02T05:54:10;98481.03;;;5.72;100.00
21817;BME280;13247;47.504;7.382;2023-02-02T05:56:55;98471.50;;;5.74;100.00
21817;BME280;13247;47.504;7.382;2023-02-02T05:59:40;98474.03;;;5.67;100.00
21817;BME280;13247;47.504;7.382;2023-02-02T06:02:25;98487.03;;;5.65;100.00
21817;BME280;13247;47.504;7.382;2023-02-02T06:05:09;98486.16;;;5.65;100.00
21817;BME280;13247;47.504;7.382;2023-02-02T06:07:54;98493.94;;;5.57;100.00
21817;BME280;13247;47.504;7.382;2023-02-02T06:10:40;98483.56;;;5.62;100.00
21817;BME280;13247;47.504;7.382;2023-02-02T06:13:25;98497.44;;;5.68;100.00
21817;BME280;13247;47.504;7.382;2023-02-02T06:16:10;98490.47;;;5.60;100.00
21817;BME280;13247;47.504;7.382;2023-02-02T06:18:55;98491.28;;;5.55;100.00
21817;BME280;13247;47.504;7.382;2023-02-02T06:21:41;98492.25;;;5.67;100.00
21817;BME280;13247;47.504;7.382;2023-02-02T06:24:26;98499.16;;;5.62;100.00
21817;BME280;13247;47.504;7.382;2023-02-02T06:27:11;98497.41;;;5.61;100.00
21817;BME280;13247;47.504;7.382;2023-02-02T06:29:55;98497.41;;;5.59;100.00
21817;BME280;13247;47.504;7.382;2023-02-02T06:32:40;98503.50;;;5.64;100.00
21817;BME280;13247;47.504;7.382;2023-02-02T06:35:25;98504.38;;;5.62;100.00
21817;BME280;13247;47.504;7.382;2023-02-02T06:38:10;98506.97;;;5.65;100.00
21817;BME280;13247;47.504;7.382;2023-02-02T06:40:57;98508.75;;;5.72;100.00
21817;BME280;13247;47.504;7.382;2023-02-02T06:43:42;98510.44;;;5.67;100.00
21817;BME280;13247;47.504;7.382;2023-02-02T06:46:27;98514.00;;;5.78;100.00
21817;BME280;13247;47.504;7.382;2023-02-02T06:49:12;98516.56;;;5.73;100.00
21817;BME280;13247;47.504;7.382;2023-02-02T06:51:56;98518.34;;;5.74;100.00
21817;BME280;13247;47.504;7.382;2023-02-02T06:54:41;98507.84;;;5.68;100.00
21817;BME280;13247;47.504;7.382;2023-02-02T06:57:25;98506.16;;;5.70;100.00
21817;BME280;13247;47.504;7.382;2023-02-02T07:00:10;98518.28;;;5.71;100.00
21817;BME280;13247;47.504;7.382;2023-02-02T07:02:56;98503.59;;;5.78;100.00
21817;BME280;13247;47.504;7.382;2023-02-02T07:05:41;98507.91;;;5.79;100.00
21817;BME280;13247;47.504;7.382;2023-02-02T07:08:25;98510.53;;;5.79;100.00
21817;BME280;13247;47.504;7.382;2023-02-02T07:11:10;98515.75;;;5.82;100.00
21817;BME280;13247;47.504;7.382;2023-02-02T07:13:55;98513.16;;;5.82;100.00
21817;BME280;13247;47.504;7.382;2023-02-02T07:16:40;98515.81;;;5.85;100.00
21817;BME280;13247;47.504;7.382;2023-02-02T07:19:24;98516.72;;;5.90;100.00
21817;BME280;13247;47.504;7.382;2023-02-02T07:22:09;98523.66;;;5.94;100.00
21817;BME280;13247;47.504;7.382;2023-02-02T07:24:54;98521.06;;;5.92;100.00
21817;BME280;13247;47.504;7.382;2023-02-02T07:27:38;98521.06;;;5.91;100.00
21817;BME280;13247;47.504;7.382;2023-02-02T07:30:23;98522.81;;;5.98;100.00
21817;BME280;13247;47.504;7.382;2023-02-02T07:33:09;98524.63;;;6.11;100.00
21817;BME280;13247;47.504;7.382;2023-02-02T07:35:53;98535.06;;;6.11;100.00
21817;BME280;13247;47.504;7.382;2023-02-02T07:38:38;98527.19;;;6.00;100.00
21817;BME280;13247;47.504;7.382;2023-02-02T07:41:23;98533.25;;;5.98;100.00
21817;BME280;13247;47.504;7.382;2023-02-02T07:44:12;98535.88;;;6.02;100.00
21817;BME280;13247;47.504;7.382;2023-02-02T07:47:00;98540.22;;;6.03;100.00
21817;BME280;13247;47.504;7.382;2023-02-02T07:49:45;98542.84;;;6.06;100.00
21817;BME280;13247;47.504;7.382;2023-02-02T07:52:29;98536.81;;;6.12;100.00
21817;BME280;13247;47.504;7.382;2023-02-02T07:55:14;98535.97;;;6.14;100.00
21817;BME280;13247;47.504;7.382;2023-02-02T07:57:59;98538.50;;;6.07;100.00
21817;BME280;13247;47.504;7.382;2023-02-02T08:00:45;98551.53;;;6.07;100.00
21817;BME280;13247;47.504;7.382;2023-02-02T08:03:30;98561.94;;;6.05;100.00
21817;BME280;13247;47.504;7.382;2023-02-02T08:06:18;98554.16;;;6.10;100.00
21817;BME280;13247;47.504;7.382;2023-02-02T08:09:05;98548.03;;;6.06;100.00
21817;BME280;13247;47.504;7.382;2023-02-02T08:11:53;98535.94;;;6.10;100.00
21817;BME280;13247;47.504;7.382;2023-02-02T08:14:38;98545.47;;;6.11;100.00
21817;BME280;13247;47.504;7.382;2023-02-02T08:17:22;98551.63;;;6.20;100.00
21817;BME280;13247;47.504;7.382;2023-02-02T08:20:07;98555.00;;;6.06;100.00
21817;BME280;13247;47.504;7.382;2023-02-02T08:22:52;98551.59;;;6.16;100.00
21817;BME280;13247;47.504;7.382;2023-02-02T08:25:37;98554.19;;;6.14;100.00
21817;BME280;13247;47.504;7.382;2023-02-02T08:28:21;98555.06;;;6.19;100.00
21817;BME280;13247;47.504;7.382;2023-02-02T08:31:09;98548.16;;;6.24;100.00
21817;BME280;13247;47.504;7.382;2023-02-02T08:33:54;98556.88;;;6.32;100.00
21817;BME280;13247;47.504;7.382;2023-02-02T08:36:41;98547.28;;;6.22;100.00
21817;BME280;13247;47.504;7.382;2023-02-02T08:39:26;98539.53;;;6.36;100.00
21817;BME280;13247;47.504;7.382;2023-02-02T08:42:10;98549.88;;;6.25;100.00
21817;BME280;13247;47.504;7.382;2023-02-02T08:44:55;98548.25;;;6.40;100.00
21817;BME280;13247;47.504;7.382;2023-02-02T08:47:40;98550.00;;;6.45;100.00
21817;BME280;13247;47.504;7.382;2023-02-02T08:50:25;98556.94;;;6.42;100.00
21817;BME280;13247;47.504;7.382;2023-02-02T08:53:09;98555.19;;;6.47;100.00
21817;BME280;13247;47.504;7.382;2023-02-02T08:56:18;98566.50;;;6.47;100.00
21817;BME280;13247;47.504;7.382;2023-02-02T08:59:03;98560.41;;;6.47;100.00
21817;BME280;13247;47.504;7.382;2023-02-02T09:01:48;98566.50;;;6.44;100.00
21817;BME280;13247;47.504;7.382;2023-02-02T09:04:33;98561.28;;;6.44;100.00
21817;BME280;13247;47.504;7.382;2023-02-02T09:07:17;98559.59;;;6.52;100.00
21817;BME280;13247;47.504;7.382;2023-02-02T09:10:02;98551.75;;;6.48;100.00
21817;BME280;13247;47.504;7.382;2023-02-02T09:12:46;98552.59;;;6.45;100.00
21817;BME280;13247;47.504;7.382;2023-02-02T09:15:31;98562.22;;;6.64;100.00
21817;BME280;13247;47.504;7.382;2023-02-02T09:18:15;98575.28;;;6.70;100.00
21817;BME280;13247;47.504;7.382;2023-02-02T09:21:02;98581.28;;;6.50;100.00
21817;BME280;13247;47.504;7.382;2023-02-02T09:23:49;98582.13;;;6.44;100.00
21817;BME280;13247;47.504;7.382;2023-02-02T09:26:34;98588.19;;;6.42;100.00
21817;BME280;13247;47.504;7.382;2023-02-02T09:29:18;98595.16;;;6.46;100.00
21817;BME280;13247;47.504;7.382;2023-02-02T09:32:03;98599.53;;;6.57;100.00
21817;BME280;13247;47.504;7.382;2023-02-02T09:34:48;98596.97;;;6.60;100.00
21817;BME280;13247;47.504;7.382;2023-02-02T09:37:33;98606.47;;;6.52;100.00
21817;BME280;13247;47.504;7.382;2023-02-02T09:40:19;98615.09;;;6.39;100.00
21817;BME280;13247;47.504;7.382;2023-02-02T09:43:15;98607.38;;;6.59;100.00
21817;BME280;13247;47.504;7.382;2023-02-02T09:46:30;98609.09;;;6.54;100.00
21817;BME280;13247;47.504;7.382;2023-02-02T09:49:21;98610.00;;;6.60;100.00
21817;BME280;13247;47.504;7.382;2023-02-02T09:52:15;98615.22;;;6.66;100.00
21817;BME280;13247;47.504;7.382;2023-02-02T09:55:44;98628.28;;;6.72;100.00
21817;BME280;13247;47.504;7.382;2023-02-02T09:58:30;98626.56;;;6.76;100.00
21817;BME280;13247;47.504;7.382;2023-02-02T10:01:33;98625.69;;;6.78;100.00
21817;BME280;13247;47.504;7.382;2023-02-02T10:04:39;98623.94;;;6.74;100.00
21817;BME280;13247;47.504;7.382;2023-02-02T10:07:31;98629.19;;;6.77;100.00
21817;BME280;13247;47.504;7.382;2023-02-02T10:10:25;98636.97;;;6.76;100.00
21817;BME280;13247;47.504;7.382;2023-02-02T10:13:15;98637.91;;;6.85;100.00
21817;BME280;13247;47.504;7.382;2023-02-02T10:16:15;98649.19;;;6.83;100.00
21817;BME280;13247;47.504;7.382;2023-02-02T10:19:09;98650.09;;;6.95;100.00
21817;BME280;13247;47.504;7.382;2023-02-02T10:22:12;98653.63;;;7.06;100.00
21817;BME280;13247;47.504;7.382;2023-02-02T10:24:59;98658.84;;;7.00;100.00
21817;BME280;13247;47.504;7.382;2023-02-02T10:28:03;98671.88;;;6.99;100.00
21817;BME280;13247;47.504;7.382;2023-02-02T10:31:00;98667.53;;;7.01;100.00
21817;BME280;13247;47.504;7.382;2023-02-02T10:33:51;98667.47;;;6.89;100.00
21817;BME280;13247;47.504;7.382;2023-02-02T10:49:37;98647.59;;;7.23;100.00
21817;BME280;13247;47.504;7.382;2023-02-02T10:52:28;98657.16;;;7.27;100.00
21817;BME280;13247;47.504;7.382;2023-02-02T10:55:26;98653.66;;;7.17;100.00
21817;BME280;13247;47.504;7.382;2023-02-02T10:58:19;98659.75;;;7.21;100.00
21817;BME280;13247;47.504;7.382;2023-02-02T11:01:08;98667.63;;;7.36;100.00
21817;BME280;13247;47.504;7.382;2023-02-02T11:03:55;98658.06;;;7.30;100.00
21817;BME280;13247;47.504;7.382;2023-02-02T11:06:58;98655.41;;;7.21;100.00
21817;BME280;13247;47.504;7.382;2023-02-02T11:09:43;98650.25;;;7.35;100.00
21817;BME280;13247;47.504;7.382;2023-02-02T11:12:29;98653.75;;;7.37;100.00
21817;BME280;13247;47.504;7.382;2023-02-02T11:15:30;98648.53;;;7.49;100.00
21817;BME280;13247;47.504;7.382;2023-02-02T11:18:29;98643.28;;;7.35;100.00
21817;BME280;13247;47.504;7.382;2023-02-02T11:21:32;98640.69;;;7.40;100.00
21817;BME280;13247;47.504;7.382;2023-02-02T11:24:44;98642.41;;;7.36;100.00
21817;BME280;13247;47.504;7.382;2023-02-02T11:27:38;98641.56;;;7.33;100.00
21817;BME280;13247;47.504;7.382;2023-02-02T11:30:29;98638.06;;;7.34;100.00
21817;BME280;13247;47.504;7.382;2023-02-02T11:36:18;98638.03;;;7.22;100.00
21817;BME280;13247;47.504;7.382;2023-02-02T11:39:22;98645.00;;;7.26;100.00
21817;BME280;13247;47.504;7.382;2023-02-02T11:44:59;98634.56;;;7.26;100.00
21817;BME280;13247;47.504;7.382;2023-02-02T11:47:44;98631.97;;;7.30;100.00
21817;BME280;13247;47.504;7.382;2023-02-02T11:50:30;98622.41;;;7.28;100.00
21817;BME280;13247;47.504;7.382;2023-02-02T11:53:37;98622.41;;;7.32;100.00
21817;BME280;13247;47.504;7.382;2023-02-02T11:56:26;98603.28;;;7.39;100.00
21817;BME280;13247;47.504;7.382;2023-02-02T11:59:31;98598.06;;;7.35;100.00
21817;BME280;13247;47.504;7.382;2023-02-02T12:02:27;98612.84;;;7.33;100.00
21817;BME280;13247;47.504;7.382;2023-02-02T12:08:08;98602.41;;;7.48;100.00
21817;BME280;13247;47.504;7.382;2023-02-02T12:11:00;98598.97;;;7.58;100.00
21817;BME280;13247;47.504;7.382;2023-02-02T12:20:25;98601.56;;;7.43;100.00
21817;BME280;13247;47.504;7.382;2023-02-02T12:23:50;98602.44;;;7.49;100.00
21817;BME280;13247;47.504;7.382;2023-02-02T12:26:39;98600.69;;;7.60;100.00
21817;BME280;13247;47.504;7.382;2023-02-02T12:35:31;98596.34;;;7.52;100.00
21817;BME280;13247;47.504;7.382;2023-02-02T12:47:40;98608.47;;;7.20;100.00
21817;BME280;13247;47.504;7.382;2023-02-02T12:50:40;98611.97;;;7.35;100.00
21817;BME280;13247;47.504;7.382;2023-02-02T12:56:39;98607.66;;;7.43;100.00
21817;BME280;13247;47.504;7.382;2023-02-02T13:00:01;98607.63;;;7.42;100.00
21817;BME280;13247;47.504;7.382;2023-02-02T13:03:04;98611.09;;;7.33;100.00
21817;BME280;13247;47.504;7.382;2023-02-02T13:12:08;98616.34;;;7.35;100.00
21817;BME280;13247;47.504;7.382;2023-02-02T13:14:59;98614.59;;;7.37;100.00
21817;BME280;13247;47.504;7.382;2023-02-02T13:17:48;98615.47;;;7.39;100.00
21817;BME280;13247;47.504;7.382;2023-02-02T13:20:46;98608.50;;;7.44;100.00
21817;BME280;13247;47.504;7.382;2023-02-02T13:23:35;98611.13;;;7.41;100.00
21817;BME280;13247;47.504;7.382;2023-02-02T13:26:31;98611.09;;;7.33;100.00
21817;BME280;13247;47.504;7.382;2023-02-02T13:29:44;98609.38;;;7.41;100.00
21817;BME280;13247;47.504;7.382;2023-02-02T13:32:40;98621.56;;;7.41;100.00
21817;BME280;13247;47.504;7.382;2023-02-02T13:36:16;98616.31;;;7.44;100.00
21817;BME280;13247;47.504;7.382;2023-02-02T13:38:40;98618.06;;;7.30;100.00
21817;BME280;13247;47.504;7.382;2023-02-02T13:41:26;98610.25;;;7.34;100.00
21817;BME280;13247;47.504;7.382;2023-02-02T13:44:28;98602.44;;;7.45;100.00
21817;BME280;13247;47.504;7.382;2023-02-02T13:47:22;98612.84;;;7.42;100.00
21817;BME280;13247;47.504;7.382;2023-02-02T13:50:16;98622.41;;;7.46;100.00
21817;BME280;13247;47.504;7.382;2023-02-02T13:59:00;98611.13;;;7.45;100.00
21817;BME280;13247;47.504;7.382;2023-02-02T14:01:49;98606.75;;;7.46;100.00
21817;BME280;13247;47.504;7.382;2023-02-02T14:04:35;98601.56;;;7.52;100.00
21817;BME280;13247;47.504;7.382;2023-02-02T14:07:36;98600.69;;;7.51;100.00
21817;BME280;13247;47.504;7.382;2023-02-02T14:10:25;98605.91;;;7.51;100.00
21817;BME280;13247;47.504;7.382;2023-02-02T14:13:17;98608.50;;;7.47;100.00
21817;BME280;13247;47.504;7.382;2023-02-02T14:22:18;98603.31;;;7.57;100.00
21817;BME280;13247;47.504;7.382;2023-02-02T14:28:42;98605.94;;;7.66;100.00
21817;BME280;13247;47.504;7.382;2023-02-02T14:31:39;98599.84;;;7.75;100.00
21817;BME280;13247;47.504;7.382;2023-02-02T14:34:38;98593.75;;;7.62;100.00
21817;BME280;13247;47.504;7.382;2023-02-02T14:40:29;98597.22;;;7.72;100.00
21817;BME280;13247;47.504;7.382;2023-02-02T14:43:45;98609.41;;;7.71;100.00
21817;BME280;13247;47.504;7.382;2023-02-02T14:46:38;98625.09;;;7.73;100.00
21817;BME280;13247;47.504;7.382;2023-02-02T14:49:25;98625.91;;;7.69;100.00
21817;BME280;13247;47.504;7.382;2023-02-02T14:52:20;98630.31;;;7.68;100.00
21817;BME280;13247;47.504;7.382;2023-02-02T14:55:19;98638.13;;;7.76;100.00
21817;BME280;13247;47.504;7.382;2023-02-02T14:58:05;98644.19;;;7.67;100.00
21817;BME280;13247;47.504;7.382;2023-02-02T15:07:35;98656.38;;;7.65;100.00
21817;BME280;13247;47.504;7.382;2023-02-02T15:13:41;98666.81;;;7.59;100.00
21817;BME280;13247;47.504;7.382;2023-02-02T15:16:31;98653.75;;;7.56;100.00
21817;BME280;13247;47.504;7.382;2023-02-02T15:19:34;98667.69;;;7.60;100.00
21817;BME280;13247;47.504;7.382;2023-02-02T15:29:06;98661.59;;;7.67;100.00
21817;BME280;13247;47.504;7.382;2023-02-02T15:31:57;98674.66;;;7.61;100.00
21817;BME280;13247;47.504;7.382;2023-02-02T15:34:47;98664.22;;;7.67;100.00
21817;BME280;13247;47.504;7.382;2023-02-02T15:37:36;98668.56;;;7.68;100.00
21817;BME280;13247;47.504;7.382;2023-02-02T15:40:25;98665.06;;;7.63;100.00
21817;BME280;13247;47.504;7.382;2023-02-02T15:43:12;98675.53;;;7.66;100.00
21817;BME280;13247;47.504;7.382;2023-02-02T15:46:12;98682.50;;;7.62;100.00
21817;BME280;13247;47.504;7.382;2023-02-02T15:52:16;98674.69;;;7.73;100.00
21817;BME280;13247;47.504;7.382;2023-02-02T15:55:11;98679.91;;;7.70;100.00
21817;BME280;13247;47.504;7.382;2023-02-02T15:58:19;98685.13;;;7.70;100.00
21817;BME280;13247;47.504;7.382;2023-02-02T16:01:15;98690.31;;;7.61;100.00
21817;BME280;13247;47.504;7.382;2023-02-02T16:04:07;98695.53;;;7.61;100.00
21817;BME280;13247;47.504;7.382;2023-02-02T16:06:57;98697.28;;;7.56;100.00
21817;BME280;13247;47.504;7.382;2023-02-02T16:09:43;98698.97;;;7.45;100.00
21817;BME280;13247;47.504;7.382;2023-02-02T16:12:28;98702.44;;;7.38;100.00
21817;BME280;13247;47.504;7.382;2023-02-02T16:15:22;98704.16;;;7.36;100.00
21817;BME280;13247;47.504;7.382;2023-02-02T16:18:13;98704.13;;;7.27;100.00
21817;BME280;13247;47.504;7.382;2023-02-02T16:21:01;98705.88;;;7.28;100.00
21817;BME280;13247;47.504;7.382;2023-02-02T16:23:48;98716.34;;;7.31;100.00
21817;BME280;13247;47.504;7.382;2023-02-02T16:26:34;98709.34;;;7.24;100.00
21817;BME280;13247;47.504;7.382;2023-02-02T16:29:20;98718.06;;;7.26;100.00
21817;BME280;13247;47.504;7.382;2023-02-02T16:32:05;98725.91;;;7.30;100.00
21817;BME280;13247;47.504;7.382;2023-02-02T16:34:50;98725.03;;;7.28;100.00
21817;BME280;13247;47.504;7.382;2023-02-02T16:37:35;98727.63;;;7.24;100.00
21817;BME280;13247;47.504;7.382;2023-02-02T16:40:29;98731.09;;;7.24;100.00
21817;BME280;13247;47.504;7.382;2023-02-02T16:43:27;98739.75;;;7.17;100.00
21817;BME280;13247;47.504;7.382;2023-02-02T16:46:13;98743.22;;;7.14;100.00
21817;BME280;13247;47.504;7.382;2023-02-02T16:49:00;98749.31;;;7.18;100.00
21817;BME280;13247;47.504;7.382;2023-02-02T16:51:46;98752.78;;;7.12;100.00